Cooke City, MT (59020)

10:34 AM MDT on September 20, 2014 (GMT -0600)
Old Cooke City | Change Station
CLOSE
Current Station
Personal Weather Station
Location: Montana, MT
Elevation: 7566 ft
Nearby Weather Stations

Elev 7566 ft 45.02 °N, 109.94 °W | Updated 14 minutes ago

Clear
Clear
48.9 °F
Feels Like 48 °F
N
3.7
Wind Variable Wind from West

Today
High -- | Low -- °F
--% Chance of Precip.
Yesterday
High -- | Low -- °F
Precip. -- in
7:04 AM 7:20 PM
Waning Crescent, 11% visible
Pressure 30.31 in
Visibility -9999.0 miles
Clouds
Windchill 48 °F
Dew Point 43 °F
Humidity 80%
Rainfall 0.00 in
Snow Depth 0 in , 0 in , 1 in
UV Not available.
Pollen 5.30 out of 12
Air Quality Not available.
Flu Activity Not available.
METAR KP60 201556Z AUTO 00000KT 10/06 A3044 RMK AO1 SLP262 T01000061 $

More Conditions Fewer Conditions

Pressure 30.31 in
Visibility -9999.0 miles
Clouds
Windchill 48 °F
Dew Point 43 °F
Humidity 80%
Rainfall 0.00 in
Snow Depth 0 in , 0 in , 1 in
UV Not available.
Pollen 5.30 out of 12
Air Quality Not available.
Flu Activity Not available.
METAR KP60 201556Z AUTO 00000KT 10/06 A3044 RMK AO1 SLP262 T01000061 $

More Conditions Fewer Conditions

10-Day Weather Forecast

Almanac

Astronomy

Sep. 20, 2014 Rise Set
Actual Time 7:04 AM MDT 7:20 PM MDT
Civil Twilight 6:35 AM MDT 7:50 PM MDT
Nautical Twilight 6:00 AM MDT 8:24 PM MDT
Astronomical Twilight 5:24 AM MDT 9:00 PM MDT
Moon 3:39 AM MDT 5:32 PM MDT
Length of Visible Light 13h 15m
Length of Day
12h 16m
Tomorrow will be 3m 6s shorter.
Waning Crescent, 11% of the Moon is Illuminated
Today
Waning Crescent
Sep 24
New
Oct 1
First Quarter
Oct 8
Full
Oct 15
Last Quarter

Today's Extremes

State Highs State Lows

Community

WunderPhotos

Upload Photos

1,754,892 photos uploaded!

Nearby

Snow Depth

Station Depth Elevation
Daly Creek 0 in 5780 ft
Barker Lakes 0 in 8250 ft
Shower Falls 1 in 8100 ft
Tizer Basin 0 in 6840 ft
Tepee Creek 0 in 8000 ft

Earthquake Activity

City Distance Mag. Time & Date
No recent earthquake activity has been reported nearby.
Minimum magnitude displayed is 2.5.

Coastal Water Temperatures

Place Temperature
No Stations Reporting

Nearby Weather Stations